sensor_id;sensor_type;location;lat;lon;timestamp;pressure;altitude;pressure_sealevel;temperature;humidity
8501;BME280;4288;48.484;10.024;2023-02-17T15:18:20;96359.66;;;12.40;93.57
8501;BME280;4288;48.484;10.024;2023-02-17T15:20:49;96372.91;;;12.67;92.18
8501;BME280;4288;48.484;10.024;2023-02-17T15:23:20;96360.72;;;12.80;91.52
8501;BME280;4288;48.484;10.024;2023-02-17T15:25:47;96356.81;;;12.67;91.56
8501;BME280;4288;48.484;10.024;2023-02-17T15:28:17;96360.78;;;12.87;90.16
8501;BME280;4288;48.484;10.024;2023-02-17T15:30:48;96363.00;;;13.32;87.61
8501;BME280;4288;48.484;10.024;2023-02-17T15:33:17;96352.50;;;14.02;84.05
8501;BME280;4288;48.484;10.024;2023-02-17T15:35:49;96359.50;;;14.39;82.80
8501;BME280;4288;48.484;10.024;2023-02-17T15:38:18;96353.69;;;14.15;81.74
8501;BME280;4288;48.484;10.024;2023-02-17T15:40:45;96352.44;;;13.74;83.64
8501;BME280;4288;48.484;10.024;2023-02-17T15:43:15;96348.88;;;13.46;85.56
8501;BME280;4288;48.484;10.024;2023-02-17T15:45:44;96354.78;;;13.04;87.53
8501;BME280;4288;48.484;10.024;2023-02-17T15:48:19;96349.16;;;12.69;89.49
8501;BME280;4288;48.484;10.024;2023-02-17T15:50:49;96352.53;;;12.59;90.06
8501;BME280;4288;48.484;10.024;2023-02-17T15:53:17;96343.22;;;12.42;91.09
8501;BME280;4288;48.484;10.024;2023-02-17T15:55:44;96338.84;;;12.27;91.64
8501;BME280;4288;48.484;10.024;2023-02-17T15:58:15;96335.34;;;12.19;92.42
8501;BME280;4288;48.484;10.024;2023-02-17T16:00:43;96331.13;;;12.15;93.27
8501;BME280;4288;48.484;10.024;2023-02-17T16:03:12;96333.31;;;12.06;93.41
8501;BME280;4288;48.484;10.024;2023-02-17T16:05:41;96332.91;;;12.04;93.44
8501;BME280;4288;48.484;10.024;2023-02-17T16:08:10;96331.25;;;11.92;94.44
8501;BME280;4288;48.484;10.024;2023-02-17T16:10:37;96333.63;;;11.97;93.87
8501;BME280;4288;48.484;10.024;2023-02-17T16:13:10;96337.63;;;11.77;95.40
8501;BME280;4288;48.484;10.024;2023-02-17T16:15:39;96343.44;;;11.86;94.66
8501;BME280;4288;48.484;10.024;2023-02-17T16:18:11;96332.69;;;11.83;94.84
8501;BME280;4288;48.484;10.024;2023-02-17T16:20:42;96331.06;;;11.71;95.40
8501;BME280;4288;48.484;10.024;2023-02-17T16:23:11;96334.97;;;11.81;95.03
8501;BME280;4288;48.484;10.024;2023-02-17T16:25:38;96334.47;;;11.68;95.86
8501;BME280;4288;48.484;10.024;2023-02-17T16:28:12;96332.81;;;11.60;96.41
8501;BME280;4288;48.484;10.024;2023-02-17T16:30:40;96334.47;;;11.68;95.77
8501;BME280;4288;48.484;10.024;2023-02-17T16:33:09;96332.06;;;11.63;95.97
8501;BME280;4288;48.484;10.024;2023-02-17T16:35:37;96340.41;;;11.54;96.57
8501;BME280;4288;48.484;10.024;2023-02-17T16:38:07;96340.94;;;11.67;95.80
8501;BME280;4288;48.484;10.024;2023-02-17T16:40:42;96342.69;;;11.52;96.91
8501;BME280;4288;48.484;10.024;2023-02-17T16:43:13;96335.78;;;11.51;97.00
8501;BME280;4288;48.484;10.024;2023-02-17T16:45:49;96339.91;;;11.45;97.23
8501;BME280;4288;48.484;10.024;2023-02-17T16:48:19;96341.09;;;11.48;97.02
8501;BME280;4288;48.484;10.024;2023-02-17T16:50:47;96335.81;;;11.55;96.74
8501;BME280;4288;48.484;10.024;2023-02-17T16:53:14;96330.34;;;11.44;97.24
8501;BME280;4288;48.484;10.024;2023-02-17T16:55:44;96328.31;;;11.34;97.90
8501;BME280;4288;48.484;10.024;2023-02-17T16:58:14;96338.13;;;11.23;98.27
8501;BME280;4288;48.484;10.024;2023-02-17T17:00:42;96337.31;;;11.19;98.79
8501;BME280;4288;48.484;10.024;2023-02-17T17:03:10;96353.81;;;11.25;98.60
8501;BME280;4288;48.484;10.024;2023-02-17T17:05:37;96346.19;;;11.27;98.64
8501;BME280;4288;48.484;10.024;2023-02-17T17:08:08;96344.56;;;11.19;98.56
8501;BME280;4288;48.484;10.024;2023-02-17T17:10:36;96344.59;;;11.22;98.60
8501;BME280;4288;48.484;10.024;2023-02-17T17:13:06;96351.22;;;11.32;97.92
8501;BME280;4288;48.484;10.024;2023-02-17T17:15:35;96343.94;;;11.29;98.22
8501;BME280;4288;48.484;10.024;2023-02-17T17:18:04;96346.59;;;11.29;98.18
8501;BME280;4288;48.484;10.024;2023-02-17T17:20:34;96355.66;;;11.21;98.50
8501;BME280;4288;48.484;10.024;2023-02-17T17:23:03;96363.25;;;11.15;98.95
8501;BME280;4288;48.484;10.024;2023-02-17T17:25:34;96365.41;;;11.06;99.28
8501;BME280;4288;48.484;10.024;2023-02-17T17:28:05;96370.34;;;11.04;99.16
8501;BME280;4288;48.484;10.024;2023-02-17T17:30:34;96364.13;;;10.97;99.56
8501;BME280;4288;48.484;10.024;2023-02-17T17:33:02;96368.69;;;11.22;98.39
8501;BME280;4288;48.484;10.024;2023-02-17T17:35:31;96368.84;;;11.07;98.64
8501;BME280;4288;48.484;10.024;2023-02-17T17:37:58;96361.81;;;10.95;99.48
8501;BME280;4288;48.484;10.024;2023-02-17T17:40:29;96368.31;;;10.94;99.66
8501;BME280;4288;48.484;10.024;2023-02-17T17:42:57;96370.91;;;10.91;99.81
8501;BME280;4288;48.484;10.024;2023-02-17T17:45:26;96368.59;;;11.15;98.54
8501;BME280;4288;48.484;10.024;2023-02-17T17:47:53;96360.22;;;10.91;99.38
8501;BME280;4288;48.484;10.024;2023-02-17T17:50:23;96362.78;;;10.84;100.00
8501;BME280;4288;48.484;10.024;2023-02-17T17:52:50;96367.72;;;10.82;100.00
8501;BME280;4288;48.484;10.024;2023-02-17T17:55:18;96350.06;;;10.77;100.00
8501;BME280;4288;48.484;10.024;2023-02-17T17:57:45;96358.09;;;10.77;100.00
8501;BME280;4288;48.484;10.024;2023-02-17T18:00:16;96357.44;;;10.84;100.00
8501;BME280;4288;48.484;10.024;2023-02-17T18:02:44;96347.34;;;10.73;100.00
8501;BME280;4288;48.484;10.024;2023-02-17T18:05:11;96357.97;;;10.66;100.00
8501;BME280;4288;48.484;10.024;2023-02-17T18:07:39;96359.53;;;10.71;100.00
8501;BME280;4288;48.484;10.024;2023-02-17T18:10:09;96351.84;;;10.66;100.00
8501;BME280;4288;48.484;10.024;2023-02-17T18:12:37;96368.69;;;10.70;100.00
8501;BME280;4288;48.484;10.024;2023-02-17T18:15:07;96382.16;;;10.51;100.00
8501;BME280;4288;48.484;10.024;2023-02-17T18:17:37;96394.97;;;10.64;100.00
8501;BME280;4288;48.484;10.024;2023-02-17T18:20:10;96393.63;;;10.77;100.00
8501;BME280;4288;48.484;10.024;2023-02-17T18:22:37;96397.22;;;10.62;100.00
8501;BME280;4288;48.484;10.024;2023-02-17T18:25:05;96392.03;;;10.73;100.00
8501;BME280;4288;48.484;10.024;2023-02-17T18:27:38;96405.06;;;10.74;100.00
8501;BME280;4288;48.484;10.024;2023-02-17T18:30:07;96400.19;;;10.57;100.00
8501;BME280;4288;48.484;10.024;2023-02-17T18:32:34;96405.13;;;10.55;100.00
8501;BME280;4288;48.484;10.024;2023-02-17T18:35:02;96405.06;;;10.52;100.00
8501;BME280;4288;48.484;10.024;2023-02-17T18:37:30;96410.88;;;10.35;100.00
8501;BME280;4288;48.484;10.024;2023-02-17T18:39:58;96414.03;;;10.40;100.00
8501;BME280;4288;48.484;10.024;2023-02-17T18:42:26;96411.84;;;10.46;100.00
8501;BME280;4288;48.484;10.024;2023-02-17T18:44:53;96420.53;;;10.39;100.00
8501;BME280;4288;48.484;10.024;2023-02-17T18:47:21;96412.97;;;10.45;100.00
8501;BME280;4288;48.484;10.024;2023-02-17T18:49:49;96407.75;;;10.29;100.00
8501;BME280;4288;48.484;10.024;2023-02-17T18:52:16;96406.56;;;10.08;100.00
8501;BME280;4288;48.484;10.024;2023-02-17T18:54:45;96410.00;;;10.27;100.00
8501;BME280;4288;48.484;10.024;2023-02-17T18:57:12;96418.28;;;10.22;100.00
8501;BME280;4288;48.484;10.024;2023-02-17T18:59:39;96415.09;;;10.13;100.00
8501;BME280;4288;48.484;10.024;2023-02-17T19:02:08;96421.81;;;10.07;100.00
8501;BME280;4288;48.484;10.024;2023-02-17T19:04:35;96424.34;;;10.00;100.00
8501;BME280;4288;48.484;10.024;2023-02-17T19:07:03;96428.22;;;9.83;100.00
8501;BME280;4288;48.484;10.024;2023-02-17T19:09:32;96435.59;;;9.71;100.00
8501;BME280;4288;48.484;10.024;2023-02-17T19:12:00;96433.69;;;9.71;100.00
8501;BME280;4288;48.484;10.024;2023-02-17T19:14:30;96440.47;;;9.65;100.00
8501;BME280;4288;48.484;10.024;2023-02-17T19:16:58;96442.00;;;9.66;100.00
8501;BME280;4288;48.484;10.024;2023-02-17T19:19:25;96437.91;;;9.72;100.00
8501;BME280;4288;48.484;10.024;2023-02-17T19:21:54;96431.38;;;9.89;100.00
8501;BME280;4288;48.484;10.024;2023-02-17T19:24:21;96431.44;;;9.73;100.00
8501;BME280;4288;48.484;10.024;2023-02-17T19:26:48;96439.75;;;9.68;100.00
8501;BME280;4288;48.484;10.024;2023-02-17T19:29:16;96436.16;;;9.80;100.00
8501;BME280;4288;48.484;10.024;2023-02-17T19:31:43;96446.13;;;9.83;100.00
8501;BME280;4288;48.484;10.024;2023-02-17T19:34:10;96437.00;;;9.84;100.00
8501;BME280;4288;48.484;10.024;2023-02-17T19:36:38;96436.72;;;9.89;100.00
8501;BME280;4288;48.484;10.024;2023-02-17T19:39:05;96444.03;;;9.92;100.00
8501;BME280;4288;48.484;10.024;2023-02-17T19:41:32;96438.69;;;9.92;100.00
8501;BME280;4288;48.484;10.024;2023-02-17T19:43:59;96450.56;;;9.95;100.00
8501;BME280;4288;48.484;10.024;2023-02-17T19:46:28;96447.59;;;10.00;100.00
8501;BME280;4288;48.484;10.024;2023-02-17T19:48:55;96446.84;;;9.99;100.00
8501;BME280;4288;48.484;10.024;2023-02-17T19:51:22;96452.94;;;10.00;100.00
8501;BME280;4288;48.484;10.024;2023-02-17T19:53:49;96470.88;;;9.99;100.00
8501;BME280;4288;48.484;10.024;2023-02-17T19:56:19;96464.47;;;10.04;100.00
8501;BME280;4288;48.484;10.024;2023-02-17T19:58:47;96465.25;;;10.04;100.00
8501;BME280;4288;48.484;10.024;2023-02-17T20:01:19;96453.84;;;10.07;100.00
8501;BME280;4288;48.484;10.024;2023-02-17T20:03:48;96460.97;;;10.00;100.00
8501;BME280;4288;48.484;10.024;2023-02-17T20:06:18;96468.63;;;10.01;100.00
8501;BME280;4288;48.484;10.024;2023-02-17T20:08:48;96470.44;;;9.97;100.00
8501;BME280;4288;48.484;10.024;2023-02-17T20:11:17;96476.56;;;9.98;100.00
8501;BME280;4288;48.484;10.024;2023-02-17T20:13:44;96477.06;;;10.03;100.00
8501;BME280;4288;48.484;10.024;2023-02-17T20:16:12;96479.78;;;10.07;100.00
8501;BME280;4288;48.484;10.024;2023-02-17T20:18:42;96478.13;;;10.18;100.00
8501;BME280;4288;48.484;10.024;2023-02-17T20:21:14;96480.56;;;10.26;100.00
8501;BME280;4288;48.484;10.024;2023-02-17T20:23:43;96482.53;;;10.48;100.00
8501;BME280;4288;48.484;10.024;2023-02-17T20:26:12;96491.31;;;10.71;100.00
8501;BME280;4288;48.484;10.024;2023-02-17T20:28:40;96495.78;;;10.87;100.00
8501;BME280;4288;48.484;10.024;2023-02-17T20:31:08;96492.81;;;10.92;100.00
8501;BME280;4288;48.484;10.024;2023-02-17T20:33:35;96489.53;;;11.02;100.00
8501;BME280;4288;48.484;10.024;2023-02-17T20:36:04;96489.53;;;11.02;100.00
8501;BME280;4288;48.484;10.024;2023-02-17T20:38:34;96476.72;;;10.88;100.00
8501;BME280;4288;48.484;10.024;2023-02-17T20:41:02;96483.66;;;10.93;100.00
8501;BME280;4288;48.484;10.024;2023-02-17T20:43:29;96479.72;;;10.87;100.00
8501;BME280;4288;48.484;10.024;2023-02-17T20:45:56;96483.22;;;10.91;100.00
8501;BME280;4288;48.484;10.024;2023-02-17T20:48:23;96489.78;;;10.93;100.00
8501;BME280;4288;48.484;10.024;2023-02-17T20:50:52;96497.44;;;10.95;100.00
8501;BME280;4288;48.484;10.024;2023-02-17T20:53:19;96488.47;;;10.84;100.00
8501;BME280;4288;48.484;10.024;2023-02-17T20:55:48;96489.53;;;10.79;100.00
8501;BME280;4288;48.484;10.024;2023-02-17T20:58:15;96496.03;;;10.78;100.00
8501;BME280;4288;48.484;10.024;2023-02-17T21:00:42;96495.34;;;10.85;100.00
8501;BME280;4288;48.484;10.024;2023-02-17T21:03:10;96502.84;;;10.75;100.00
8501;BME280;4288;48.484;10.024;2023-02-17T21:05:37;96510.44;;;10.73;100.00
8501;BME280;4288;48.484;10.024;2023-02-17T21:08:04;96513.53;;;10.75;100.00
8501;BME280;4288;48.484;10.024;2023-02-17T21:10:32;96519.53;;;10.69;100.00
8501;BME280;4288;48.484;10.024;2023-02-17T21:13:01;96526.50;;;10.73;100.00
8501;BME280;4288;48.484;10.024;2023-02-17T21:15:28;96524.97;;;10.72;100.00
8501;BME280;4288;48.484;10.024;2023-02-17T21:17:55;96526.66;;;10.61;100.00
8501;BME280;4288;48.484;10.024;2023-02-17T21:20:22;96526.59;;;10.58;100.00
8501;BME280;4288;48.484;10.024;2023-02-17T21:22:50;96533.34;;;10.52;100.00
8501;BME280;4288;48.484;10.024;2023-02-17T21:25:17;96526.53;;;10.54;100.00
8501;BME280;4288;48.484;10.024;2023-02-17T21:27:44;96524.38;;;10.41;100.00
8501;BME280;4288;48.484;10.024;2023-02-17T21:30:14;96531.91;;;10.35;100.00
8501;BME280;4288;48.484;10.024;2023-02-17T21:32:41;96535.28;;;10.32;100.00
8501;BME280;4288;48.484;10.024;2023-02-17T21:35:09;96549.34;;;10.29;100.00
8501;BME280;4288;48.484;10.024;2023-02-17T21:37:36;96550.13;;;10.30;100.00
8501;BME280;4288;48.484;10.024;2023-02-17T21:40:06;96544.50;;;10.35;100.00
8501;BME280;4288;48.484;10.024;2023-02-17T21:42:35;96544.78;;;10.30;100.00
8501;BME280;4288;48.484;10.024;2023-02-17T21:45:21;96537.16;;;10.32;100.00
8501;BME280;4288;48.484;10.024;2023-02-17T21:47:49;96537.66;;;10.18;100.00
8501;BME280;4288;48.484;10.024;2023-02-17T21:50:17;96551.44;;;10.20;100.00
8501;BME280;4288;48.484;10.024;2023-02-17T21:52:46;96535.41;;;10.20;100.00
8501;BME280;4288;48.484;10.024;2023-02-17T21:55:13;96545.19;;;10.13;100.00
8501;BME280;4288;48.484;10.024;2023-02-17T21:57:40;96542.41;;;10.09;100.00
8501;BME280;4288;48.484;10.024;2023-02-17T22:00:08;96556.28;;;10.15;100.00
8501;BME280;4288;48.484;10.024;2023-02-17T22:02:39;96544.91;;;10.18;100.00
8501;BME280;4288;48.484;10.024;2023-02-17T22:05:06;96551.31;;;10.13;100.00
8501;BME280;4288;48.484;10.024;2023-02-17T22:07:34;96552.09;;;10.14;100.00
8501;BME280;4288;48.484;10.024;2023-02-17T22:10:03;96553.47;;;10.08;100.00
8501;BME280;4288;48.484;10.024;2023-02-17T22:12:30;96551.03;;;10.03;100.00
8501;BME280;4288;48.484;10.024;2023-02-17T22:14:57;96551.69;;;9.96;100.00
8501;BME280;4288;48.484;10.024;2023-02-17T22:17:24;96556.25;;;9.96;100.00
8501;BME280;4288;48.484;10.024;2023-02-17T22:19:53;96554.50;;;10.03;100.00
8501;BME280;4288;48.484;10.024;2023-02-17T22:22:21;96562.59;;;10.07;100.00
8501;BME280;4288;48.484;10.024;2023-02-17T22:24:48;96552.84;;;10.14;100.00
8501;BME280;4288;48.484;10.024;2023-02-17T22:27:15;96554.69;;;10.10;100.00
8501;BME280;4288;48.484;10.024;2023-02-17T22:29:42;96564.16;;;10.08;100.00
8501;BME280;4288;48.484;10.024;2023-02-17T22:32:09;96554.06;;;10.01;100.00
8501;BME280;4288;48.484;10.024;2023-02-17T22:34:37;96556.31;;;9.99;100.00
8501;BME280;4288;48.484;10.024;2023-02-17T22:37:05;96554.72;;;9.95;100.00
8501;BME280;4288;48.484;10.024;2023-02-17T22:39:32;96542.63;;;10.01;100.00
8501;BME280;4288;48.484;10.024;2023-02-17T22:41:59;96537.84;;;9.91;100.00
8501;BME280;4288;48.484;10.024;2023-02-17T22:44:27;96524.06;;;9.88;100.00
8501;BME280;4288;48.484;10.024;2023-02-17T22:46:55;96533.91;;;9.84;100.00
8501;BME280;4288;48.484;10.024;2023-02-17T22:49:22;96528.06;;;9.79;100.00
8501;BME280;4288;48.484;10.024;2023-02-17T22:51:49;96531.97;;;9.85;100.00
8501;BME280;4288;48.484;10.024;2023-02-17T22:54:17;96526.31;;;9.86;100.00
8501;BME280;4288;48.484;10.024;2023-02-17T22:56:44;96536.22;;;9.86;100.00
8501;BME280;4288;48.484;10.024;2023-02-17T22:59:11;96527.25;;;9.94;100.00
8501;BME280;4288;48.484;10.024;2023-02-17T23:01:38;96531.44;;;9.95;100.00
8501;BME280;4288;48.484;10.024;2023-02-17T23:04:06;96534.97;;;9.99;100.00
8501;BME280;4288;48.484;10.024;2023-02-17T23:06:35;96529.97;;;9.98;100.00
8501;BME280;4288;48.484;10.024;2023-02-17T23:09:06;96538.69;;;9.95;100.00
8501;BME280;4288;48.484;10.024;2023-02-17T23:11:38;96537.63;;;9.99;100.00
8501;BME280;4288;48.484;10.024;2023-02-17T23:14:23;96540.38;;;10.03;100.00
8501;BME280;4288;48.484;10.024;2023-02-17T23:16:51;96538.91;;;10.05;100.00
8501;BME280;4288;48.484;10.024;2023-02-17T23:19:20;96540.09;;;10.08;100.00
8501;BME280;4288;48.484;10.024;2023-02-17T23:21:51;96540.88;;;10.08;100.00
8501;BME280;4288;48.484;10.024;2023-02-17T23:24:20;96537.53;;;10.11;100.00
8501;BME280;4288;48.484;10.024;2023-02-17T23:26:49;96530.53;;;10.07;100.00
8501;BME280;4288;48.484;10.024;2023-02-17T23:29:16;96536.28;;;10.09;100.00
8501;BME280;4288;48.484;10.024;2023-02-17T23:31:43;96518.75;;;10.08;100.00
8501;BME280;4288;48.484;10.024;2023-02-17T23:34:12;96525.97;;;10.07;100.00
8501;BME280;4288;48.484;10.024;2023-02-17T23:36:40;96531.06;;;10.12;100.00
8501;BME280;4288;48.484;10.024;2023-02-17T23:39:08;96518.75;;;10.08;100.00
8501;BME280;4288;48.484;10.024;2023-02-17T23:41:36;96516.59;;;10.13;100.00
8501;BME280;4288;48.484;10.024;2023-02-17T23:44:07;96518.63;;;10.20;100.00
8501;BME280;4288;48.484;10.024;2023-02-17T23:46:35;96523.88;;;10.16;100.00
8501;BME280;4288;48.484;10.024;2023-02-17T23:49:03;96525.88;;;10.19;100.00
8501;BME280;4288;48.484;10.024;2023-02-17T23:51:30;96519.25;;;10.13;100.00
8501;BME280;4288;48.484;10.024;2023-02-17T23:53:58;96517.78;;;10.16;100.00
8501;BME280;4288;48.484;10.024;2023-02-17T23:56:28;96516.06;;;10.08;100.00
8501;BME280;4288;48.484;10.024;2023-02-17T23:58:57;96515.44;;;10.14;100.00
